Time;durP1;ratioP1;P1;durP2;ratioP2;P2;SDS_P1;SDS_P2;PMS_P1;PMS_P2;Temp;Humidity;BMP_temperature;BMP_pressure;BME280_temperature;BME280_humidity;BME280_pressure;Samples;Min_cycle;Max_cycle;Signal;HPM_P1;HPM_P2
2023/09/13 00:02:03;;;;;;;8.35;7.55;;;18.40;99.90;;;;;;4825285;29;20197;-96
2023/09/13 00:04:33;;;;;;;10.02;9.02;;;18.40;99.90;;;;;;4825672;29;20209;-96
2023/09/13 00:07:02;;;;;;;11.45;10.25;;;18.50;99.90;;;;;;4823066;29;20221;-96
2023/09/13 00:09:28;;;;;;;12.45;9.93;;;18.50;99.90;;;;;;4820894;29;20186;-95
2023/09/13 00:11:55;;;;;;;21.88;11.52;;;18.50;99.90;;;;;;4818038;29;20182;-96
2023/09/13 00:14:20;;;;;;;12.13;8.85;;;18.60;99.90;;;;;;4819054;29;20182;-96
2023/09/13 00:16:46;;;;;;;12.10;8.60;;;18.50;99.90;;;;;;4819615;29;20290;-96
2023/09/13 00:19:13;;;;;;;13.73;7.78;;;18.50;99.90;;;;;;4821732;29;20217;-96
2023/09/13 00:21:43;;;;;;;9.85;7.03;;;18.60;99.90;;;;;;4820994;29;20217;-95
2023/09/13 00:24:10;;;;;;;11.80;7.10;;;18.60;99.90;;;;;;4819724;29;20233;-96
2023/09/13 00:26:37;;;;;;;10.52;8.02;;;18.60;99.90;;;;;;4815814;29;20209;-96
2023/09/13 00:29:09;;;;;;;10.02;8.13;;;18.50;99.90;;;;;;4814188;29;20210;-96
2023/09/13 00:31:36;;;;;;;12.88;7.93;;;18.50;99.90;;;;;;4817118;29;20178;-96
2023/09/13 00:34:02;;;;;;;9.40;6.90;;;18.50;99.90;;;;;;4817154;29;20190;-96
2023/09/13 00:36:29;;;;;;;10.85;6.43;;;18.50;99.90;;;;;;4814792;29;20178;-96
2023/09/13 00:38:56;;;;;;;7.72;6.57;;;18.50;99.90;;;;;;4815123;29;20197;-96
2023/09/13 00:41:22;;;;;;;12.15;7.10;;;18.40;99.90;;;;;;4815760;29;20190;-96
2023/09/13 00:43:48;;;;;;;8.50;6.80;;;18.30;99.90;;;;;;4813009;29;20178;-95
2023/09/13 00:46:20;;;;;;;8.60;7.50;;;18.30;99.90;;;;;;4814648;29;20228;-96
2023/09/13 00:48:46;;;;;;;9.90;7.93;;;18.30;99.90;;;;;;4814254;29;20189;-95
2023/09/13 00:51:13;;;;;;;9.57;7.20;;;18.20;99.90;;;;;;4812899;29;20515;-95
2023/09/13 00:53:40;;;;;;;8.65;7.47;;;18.30;99.90;;;;;;4811308;29;20635;-95
2023/09/13 00:56:06;;;;;;;7.93;6.70;;;18.30;99.90;;;;;;4809853;29;20216;-95
2023/09/13 00:58:33;;;;;;;9.45;7.18;;;18.30;99.90;;;;;;4809960;29;20212;-95
2023/09/13 01:01:02;;;;;;;9.45;6.57;;;18.20;99.90;;;;;;4809038;29;20659;-95
2023/09/13 01:03:28;;;;;;;8.05;6.72;;;18.30;99.90;;;;;;4809037;29;20188;-96
2023/09/13 01:05:55;;;;;;;9.70;6.70;;;18.20;99.90;;;;;;4808983;29;20201;-96
2023/09/13 01:08:21;;;;;;;8.85;7.00;;;18.30;99.90;;;;;;4808530;29;20198;-94
2023/09/13 01:10:48;;;;;;;7.70;6.55;;;18.30;99.90;;;;;;4808738;29;20278;-95
2023/09/13 01:13:14;;;;;;;11.02;6.97;;;18.30;99.90;;;;;;4809234;29;20700;-95
2023/09/13 01:15:53;;;;;;;7.28;6.35;;;18.30;99.90;;;;;;4812068;29;20186;-96
2023/09/13 01:18:30;;;;;;;9.93;6.30;;;18.40;99.90;;;;;;4812091;29;20215;-95
2023/09/13 01:21:23;;;;;;;12.18;6.90;;;18.40;99.90;;;;;;4812039;29;20177;-95
2023/09/13 01:24:26;;;;;;;9.43;6.97;;;18.40;99.90;;;;;;4811890;29;20236;-95
2023/09/13 01:26:56;;;;;;;7.93;6.78;;;18.40;99.90;;;;;;4813958;29;20221;-96
2023/09/13 01:29:25;;;;;;;7.15;5.97;;;18.40;99.90;;;;;;4815756;29;20182;-95
2023/09/13 01:31:51;;;;;;;8.90;6.90;;;18.40;99.90;;;;;;4813192;29;20182;-95
2023/09/13 01:34:18;;;;;;;8.95;7.13;;;18.40;99.90;;;;;;4814773;29;20246;-95
2023/09/13 01:36:45;;;;;;;7.05;5.22;;;18.40;99.90;;;;;;4816490;29;20301;-96
2023/09/13 01:39:11;;;;;;;8.00;5.22;;;18.40;99.90;;;;;;4814244;29;20219;-94
2023/09/13 01:41:44;;;;;;;6.22;4.63;;;18.40;99.90;;;;;;4813987;29;20190;-96
2023/09/13 01:44:10;;;;;;;9.93;4.85;;;18.40;99.90;;;;;;4814247;29;20190;-95
2023/09/13 01:46:41;;;;;;;5.85;4.38;;;18.40;99.90;;;;;;4814074;29;20210;-96
2023/09/13 01:49:12;;;;;;;5.35;4.40;;;18.40;99.90;;;;;;4820984;29;20193;-96
2023/09/13 01:51:46;;;;;;;7.53;4.43;;;18.40;99.90;;;;;;4820444;29;20544;-96
2023/09/13 01:54:12;;;;;;;7.93;4.78;;;18.40;99.90;;;;;;4821635;29;20273;-96
2023/09/13 01:56:40;;;;;;;7.22;4.72;;;18.30;99.90;;;;;;4821101;29;20213;-96
2023/09/13 01:59:06;;;;;;;8.70;4.20;;;18.30;99.90;;;;;;4822358;29;20277;-96
2023/09/13 02:01:33;;;;;;;6.88;4.22;;;18.30;99.90;;;;;;4822571;29;20182;-96
2023/09/13 02:03:59;;;;;;;8.68;4.30;;;18.30;99.90;;;;;;4821021;29;20190;-96
2023/09/13 02:06:25;;;;;;;6.40;4.05;;;18.30;99.90;;;;;;4821400;29;20209;-96
2023/09/13 02:08:51;;;;;;;7.55;3.90;;;18.30;99.90;;;;;;4818887;29;20239;-94
2023/09/13 02:11:17;;;;;;;8.20;4.60;;;18.30;99.90;;;;;;4810965;29;20178;-95
2023/09/13 02:13:42;;;;;;;6.78;4.35;;;18.30;99.90;;;;;;4811199;29;20188;-95
2023/09/13 02:16:08;;;;;;;10.52;4.53;;;18.20;99.90;;;;;;4810999;29;20215;-94
2023/09/13 02:18:34;;;;;;;5.82;4.75;;;18.20;99.90;;;;;;4811034;29;20246;-94
2023/09/13 02:21:00;;;;;;;5.18;3.92;;;18.10;99.90;;;;;;4810796;29;20182;-94
2023/09/13 02:23:26;;;;;;;6.82;4.32;;;18.10;99.90;;;;;;4810824;29;20258;-94
2023/09/13 02:25:51;;;;;;;6.55;4.15;;;18.10;99.90;;;;;;4810426;29;20266;-94
2023/09/13 02:30:52;;;;;;;6.85;4.20;;;18.10;99.90;;;;;;4838772;24;20692;-86
2023/09/13 02:33:18;;;;;;;5.65;4.45;;;18.10;99.90;;;;;;4826117;29;20239;-86
2023/09/13 02:35:47;;;;;;;4.88;4.32;;;18.20;99.90;;;;;;4825785;29;20197;-86
2023/09/13 02:38:12;;;;;;;6.85;4.68;;;18.10;99.90;;;;;;4825729;29;20571;-86
2023/09/13 02:40:38;;;;;;;9.10;5.03;;;18.10;99.90;;;;;;4826984;29;20265;-86
2023/09/13 02:43:04;;;;;;;6.03;4.57;;;18.10;99.90;;;;;;4825946;29;20526;-86
2023/09/13 02:45:29;;;;;;;6.38;4.65;;;18.10;99.90;;;;;;4826865;29;20262;-85
2023/09/13 02:47:55;;;;;;;6.65;4.63;;;18.10;99.90;;;;;;4825571;29;20281;-85
2023/09/13 02:50:21;;;;;;;7.53;4.50;;;18.10;99.90;;;;;;4807969;29;20190;-86
2023/09/13 02:52:47;;;;;;;7.70;4.90;;;18.10;99.90;;;;;;4807556;29;20190;-85
2023/09/13 02:55:13;;;;;;;5.28;4.68;;;18.10;99.90;;;;;;4807484;29;20219;-85
2023/09/13 02:57:38;;;;;;;7.78;4.80;;;18.10;99.90;;;;;;4807286;29;20182;-85
2023/09/13 03:00:05;;;;;;;5.35;4.47;;;18.10;99.90;;;;;;4807982;29;20186;-86
2023/09/13 03:02:31;;;;;;;9.38;4.65;;;18.10;99.90;;;;;;4808445;29;20198;-85
2023/09/13 03:04:57;;;;;;;8.55;5.10;;;18.10;99.90;;;;;;4806302;29;20225;-85
2023/09/13 03:07:23;;;;;;;8.48;5.10;;;18.00;99.90;;;;;;4808300;29;20611;-85
2023/09/13 03:09:57;;;;;;;5.55;4.53;;;18.00;99.90;;;;;;4807128;29;20527;-85
2023/09/13 03:12:23;;;;;;;7.07;4.97;;;17.90;99.90;;;;;;4807193;29;20693;-85
2023/09/13 03:14:48;;;;;;;8.45;4.40;;;17.90;99.90;;;;;;4807315;29;20295;-85
2023/09/13 03:17:14;;;;;;;5.13;4.35;;;17.90;99.90;;;;;;4806650;29;20213;-85
2023/09/13 03:19:40;;;;;;;5.75;4.20;;;17.90;99.90;;;;;;4806518;29;20195;-84
2023/09/13 03:22:06;;;;;;;5.88;4.15;;;18.00;99.90;;;;;;4808096;29;20208;-85
2023/09/13 03:24:31;;;;;;;7.28;4.38;;;17.90;99.90;;;;;;4806908;29;20175;-85
2023/09/13 03:26:57;;;;;;;5.50;4.75;;;17.90;99.90;;;;;;4806799;29;20214;-85
2023/09/13 03:29:23;;;;;;;7.72;4.82;;;17.90;99.90;;;;;;4814118;29;20236;-85
2023/09/13 03:31:48;;;;;;;9.40;5.20;;;17.90;99.90;;;;;;4810016;29;20254;-85
2023/09/13 03:34:14;;;;;;;7.22;5.78;;;17.90;99.90;;;;;;4826176;29;20505;-85
2023/09/13 03:36:40;;;;;;;8.02;5.63;;;17.90;99.90;;;;;;4808675;29;20182;-85
2023/09/13 03:39:06;;;;;;;6.93;5.22;;;17.90;99.90;;;;;;4809669;29;20193;-84
2023/09/13 03:41:32;;;;;;;7.28;6.28;;;17.90;99.90;;;;;;4826067;29;20181;-84
2023/09/13 03:43:58;;;;;;;8.00;5.95;;;17.90;99.90;;;;;;4809557;29;20194;-84
2023/09/13 03:46:23;;;;;;;8.32;7.05;;;17.90;99.90;;;;;;4825808;29;20210;-84
2023/09/13 03:48:49;;;;;;;8.65;7.75;;;17.90;99.90;;;;;;4809296;29;20697;-84
2023/09/13 03:51:15;;;;;;;9.93;7.15;;;17.90;99.90;;;;;;4809165;29;20285;-84
2023/09/13 03:53:40;;;;;;;8.23;6.70;;;17.80;99.90;;;;;;4809461;29;20617;-85
2023/09/13 03:56:06;;;;;;;10.32;6.97;;;17.80;99.90;;;;;;4809856;29;20533;-85
2023/09/13 03:58:36;;;;;;;8.82;7.25;;;17.80;99.90;;;;;;4809185;29;20688;-84
2023/09/13 04:01:02;;;;;;;8.23;7.43;;;17.80;99.90;;;;;;4825627;29;20186;-84
2023/09/13 04:03:28;;;;;;;7.95;7.13;;;17.80;99.90;;;;;;4825541;29;20169;-83
2023/09/13 04:05:54;;;;;;;7.57;6.35;;;17.80;99.90;;;;;;4825459;29;20202;-84
2023/09/13 04:08:20;;;;;;;8.35;6.90;;;17.80;99.90;;;;;;4809035;29;20186;-84
2023/09/13 04:10:46;;;;;;;7.05;6.35;;;17.80;99.90;;;;;;4825598;29;20185;-84
2023/09/13 04:13:12;;;;;;;7.28;6.45;;;17.80;99.90;;;;;;4809335;29;20268;-84
2023/09/13 04:15:38;;;;;;;7.28;6.22;;;17.80;99.90;;;;;;4809094;29;20277;-84
2023/09/13 04:18:04;;;;;;;7.60;6.55;;;17.80;99.90;;;;;;4825378;29;20205;-84
2023/09/13 04:20:30;;;;;;;6.95;6.30;;;17.80;99.90;;;;;;4808827;29;20190;-84
2023/09/13 04:22:56;;;;;;;9.60;7.43;;;17.80;99.90;;;;;;4825626;29;20170;-85
2023/09/13 04:25:22;;;;;;;7.70;6.60;;;17.80;99.90;;;;;;4825471;29;20220;-84
2023/09/13 04:27:48;;;;;;;8.70;7.68;;;17.80;99.90;;;;;;4825233;29;20182;-84
2023/09/13 04:30:15;;;;;;;7.57;6.82;;;17.80;99.90;;;;;;4808784;29;20262;-84
2023/09/13 04:32:42;;;;;;;9.50;6.88;;;17.80;99.90;;;;;;4808959;29;20192;-83
2023/09/13 04:35:08;;;;;;;8.35;7.20;;;17.80;99.90;;;;;;4815161;29;20206;-83
2023/09/13 04:37:34;;;;;;;9.45;7.07;;;17.80;99.90;;;;;;4825326;29;20174;-84
2023/09/13 04:40:05;;;;;;;6.90;6.30;;;17.80;99.90;;;;;;4823987;29;20190;-84
2023/09/13 04:42:35;;;;;;;10.20;7.15;;;17.80;99.90;;;;;;4824056;29;20207;-84
2023/09/13 04:45:00;;;;;;;7.45;6.65;;;17.80;99.90;;;;;;4820651;29;20185;-84
2023/09/13 04:47:26;;;;;;;8.10;7.20;;;17.80;99.90;;;;;;4825922;29;20189;-84
2023/09/13 04:49:52;;;;;;;6.78;6.10;;;17.80;99.90;;;;;;4828525;29;20213;-84
2023/09/13 04:52:17;;;;;;;9.20;6.60;;;17.80;99.90;;;;;;4828951;29;20611;-84
2023/09/13 04:54:43;;;;;;;8.10;6.18;;;17.90;99.90;;;;;;4811830;29;20178;-84
2023/09/13 04:57:09;;;;;;;8.85;6.90;;;17.80;99.90;;;;;;4828552;29;20181;-84
2023/09/13 04:59:46;;;;;;;7.32;6.35;;;17.80;99.90;;;;;;4828292;29;20182;-84
2023/09/13 05:02:12;;;;;;;7.13;6.43;;;17.80;99.90;;;;;;4827717;29;20177;-84
2023/09/13 05:04:39;;;;;;;8.00;6.03;;;17.80;99.90;;;;;;4811855;29;20265;-84
2023/09/13 05:07:06;;;;;;;8.70;5.60;;;17.80;99.90;;;;;;4827245;29;20522;-83
2023/09/13 05:09:32;;;;;;;8.20;5.60;;;17.90;99.90;;;;;;4828438;29;20570;-82
2023/09/13 05:11:58;;;;;;;5.57;4.88;;;17.90;99.90;;;;;;4811784;29;20182;-84
2023/09/13 05:14:24;;;;;;;7.00;5.38;;;17.80;99.90;;;;;;4812050;29;20254;-83
2023/09/13 05:16:49;;;;;;;7.05;4.80;;;17.80;99.90;;;;;;4811773;29;20649;-84
2023/09/13 05:19:15;;;;;;;7.95;5.53;;;17.80;99.90;;;;;;4827291;29;20193;-83
2023/09/13 05:21:41;;;;;;;9.85;5.82;;;17.80;99.90;;;;;;4811565;29;20182;-83
2023/09/13 05:24:07;;;;;;;5.93;5.18;;;17.70;99.90;;;;;;4828171;29;20598;-83
2023/09/13 05:26:33;;;;;;;7.03;5.75;;;17.70;99.90;;;;;;4811570;29;20225;-83
2023/09/13 05:28:59;;;;;;;7.10;5.03;;;17.80;99.90;;;;;;4811329;29;20240;-83
2023/09/13 05:31:25;;;;;;;6.65;5.95;;;17.70;99.90;;;;;;4811874;29;20225;-83
2023/09/13 05:33:50;;;;;;;7.97;6.57;;;17.80;99.90;;;;;;4811446;29;20626;-84
2023/09/13 05:36:16;;;;;;;8.73;6.13;;;17.70;99.90;;;;;;4810798;29;20201;-85
2023/09/13 05:38:42;;;;;;;6.25;5.63;;;17.70;99.90;;;;;;4811655;29;20211;-84
2023/09/13 05:41:09;;;;;;;7.00;6.28;;;17.80;99.90;;;;;;4827902;29;20656;-84
2023/09/13 05:43:36;;;;;;;6.65;5.95;;;17.80;99.90;;;;;;4811701;29;20205;-83
2023/09/13 05:46:02;;;;;;;6.07;5.28;;;17.90;99.90;;;;;;4811633;29;20210;-83
2023/09/13 05:48:28;;;;;;;7.80;6.40;;;17.90;99.90;;;;;;4810437;29;20182;-83
2023/09/13 05:50:54;;;;;;;6.90;6.20;;;17.90;99.90;;;;;;4827712;29;20188;-83
2023/09/13 05:53:20;;;;;;;7.88;6.68;;;18.00;99.90;;;;;;4827680;29;20239;-83
2023/09/13 05:55:49;;;;;;;7.78;6.13;;;18.00;99.90;;;;;;4826804;29;20648;-83
2023/09/13 05:58:15;;;;;;;8.00;6.15;;;18.00;99.90;;;;;;4811183;29;20249;-83
2023/09/13 06:00:42;;;;;;;10.70;6.20;;;18.00;99.90;;;;;;4810632;29;20235;-83
2023/09/13 06:03:08;;;;;;;7.55;6.10;;;18.00;99.90;;;;;;4827667;29;20187;-83
2023/09/13 06:05:35;;;;;;;8.07;6.20;;;18.00;99.90;;;;;;4811188;29;20258;-83
2023/09/13 06:08:01;;;;;;;7.75;5.82;;;18.10;99.90;;;;;;4826532;29;20510;-83
2023/09/13 06:10:27;;;;;;;9.52;6.78;;;18.00;99.90;;;;;;4827283;29;20183;-83
2023/09/13 06:12:53;;;;;;;6.03;5.43;;;18.10;99.90;;;;;;4811107;29;20242;-83
2023/09/13 06:15:19;;;;;;;6.40;5.50;;;18.10;99.90;;;;;;4827585;29;20295;-83
2023/09/13 06:17:44;;;;;;;5.72;5.05;;;18.10;99.90;;;;;;4810970;29;20219;-83
2023/09/13 06:20:10;;;;;;;8.00;5.35;;;18.10;99.90;;;;;;4827215;29;20182;-83
2023/09/13 06:22:36;;;;;;;9.52;5.88;;;18.20;99.90;;;;;;4827063;29;20569;-83
2023/09/13 06:25:03;;;;;;;7.25;5.90;;;18.20;99.90;;;;;;4827050;29;20657;-83
2023/09/13 06:27:29;;;;;;;7.35;5.93;;;18.20;99.90;;;;;;4810777;29;20193;-82
2023/09/13 06:29:55;;;;;;;9.43;5.68;;;18.10;99.90;;;;;;4827075;29;20362;-83
2023/09/13 06:32:21;;;;;;;9.10;5.72;;;18.10;99.90;;;;;;4827129;29;20193;-83
2023/09/13 06:34:47;;;;;;;7.13;5.70;;;18.20;99.90;;;;;;4827121;29;20170;-82
2023/09/13 06:37:13;;;;;;;7.10;5.55;;;18.10;99.90;;;;;;4810561;29;20622;-83
2023/09/13 06:39:38;;;;;;;9.68;5.88;;;18.20;99.90;;;;;;4826631;29;20190;-82
2023/09/13 06:42:05;;;;;;;6.30;5.70;;;18.20;99.90;;;;;;4810735;29;20593;-82
2023/09/13 06:44:30;;;;;;;7.30;5.78;;;18.20;99.90;;;;;;4810687;29;20190;-82
2023/09/13 06:46:56;;;;;;;6.65;5.97;;;18.20;99.90;;;;;;4826709;29;20533;-82
2023/09/13 06:49:22;;;;;;;7.07;6.00;;;18.20;99.90;;;;;;4810598;29;20275;-83
2023/09/13 06:51:47;;;;;;;7.28;5.88;;;18.20;99.90;;;;;;4826846;29;20178;-82
2023/09/13 06:54:14;;;;;;;10.55;6.25;;;18.20;99.90;;;;;;4825547;29;20182;-82
2023/09/13 06:56:42;;;;;;;7.00;6.30;;;18.20;99.90;;;;;;4826532;29;20178;-83
2023/09/13 06:59:08;;;;;;;7.35;6.65;;;18.20;99.90;;;;;;4809818;29;20190;-83
2023/09/13 07:01:33;;;;;;;7.38;6.68;;;18.30;99.90;;;;;;4810261;29;20629;-82
2023/09/13 07:03:59;;;;;;;9.40;7.10;;;18.30;99.90;;;;;;4825468;29;20653;-82
2023/09/13 07:06:25;;;;;;;7.07;6.38;;;18.40;99.90;;;;;;4826397;29;20235;-82
2023/09/13 07:08:51;;;;;;;10.45;7.22;;;18.40;99.90;;;;;;4809694;29;20182;-83
2023/09/13 07:11:17;;;;;;;9.70;7.25;;;18.50;99.90;;;;;;4825120;29;20214;-83
2023/09/13 07:13:42;;;;;;;8.25;7.43;;;18.60;99.90;;;;;;4826497;29;20170;-82
2023/09/13 07:16:08;;;;;;;9.23;7.18;;;18.60;99.90;;;;;;4826526;29;20195;-82
2023/09/13 07:18:34;;;;;;;7.95;7.13;;;18.60;99.90;;;;;;4809623;29;20515;-81
2023/09/13 07:21:00;;;;;;;8.68;6.70;;;18.60;99.90;;;;;;4818608;29;20280;-81
2023/09/13 07:23:27;;;;;;;7.10;6.40;;;18.70;99.90;;;;;;4810705;29;20182;-82
2023/09/13 07:25:53;;;;;;;7.22;6.53;;;18.60;99.90;;;;;;4826296;29;20290;-82
2023/09/13 07:28:20;;;;;;;9.48;7.10;;;18.70;99.90;;;;;;4826155;29;20689;-83
2023/09/13 07:30:46;;;;;;;9.35;7.50;;;18.60;99.90;;;;;;4806573;29;20238;-81
2023/09/13 07:33:25;;;;;;;7.85;7.03;;;18.50;99.90;;;;;;5071709;28;20552;-83
2023/09/13 07:35:51;;;;;;;8.57;6.80;;;18.50;99.90;;;;;;5070333;28;20228;-82
2023/09/13 07:38:17;;;;;;;10.30;7.00;;;18.50;99.90;;;;;;5070097;28;20258;-83
2023/09/13 07:40:42;;;;;;;7.38;6.45;;;18.50;99.90;;;;;;5071598;28;20166;-82
2023/09/13 07:43:08;;;;;;;6.75;6.05;;;18.50;99.90;;;;;;5070301;28;20181;-83
2023/09/13 07:45:34;;;;;;;7.65;6.28;;;18.50;99.90;;;;;;5070178;28;20208;-83
2023/09/13 07:48:02;;;;;;;7.22;5.57;;;18.50;99.90;;;;;;5071268;28;20948;-83
2023/09/13 07:50:34;;;;;;;6.38;5.22;;;18.60;99.90;;;;;;5069880;28;20190;-83
2023/09/13 07:53:00;;;;;;;6.53;5.22;;;18.60;99.90;;;;;;5071044;28;20209;-83
2023/09/13 07:55:26;;;;;;;5.60;5.03;;;18.60;99.90;;;;;;5070125;28;20272;-82
2023/09/13 07:57:52;;;;;;;5.97;5.35;;;18.70;99.90;;;;;;5071141;28;20304;-82
2023/09/13 08:00:18;;;;;;;5.80;5.20;;;18.80;99.90;;;;;;5071010;28;20173;-82
2023/09/13 08:02:46;;;;;;;5.35;4.85;;;18.90;99.90;;;;;;5070794;28;20226;-83
2023/09/13 08:05:12;;;;;;;7.18;5.40;;;19.00;99.90;;;;;;5069857;28;20170;-81
2023/09/13 08:07:38;;;;;;;6.38;5.68;;;19.10;99.90;;;;;;5069453;28;20196;-81
2023/09/13 08:10:04;;;;;;;6.22;4.90;;;19.20;99.90;;;;;;5069718;28;20177;-82
2023/09/13 08:12:30;;;;;;;7.57;5.78;;;19.20;99.90;;;;;;5070915;28;20209;-81
2023/09/13 08:14:56;;;;;;;6.68;4.80;;;19.20;99.90;;;;;;5069570;28;20224;-80
2023/09/13 08:17:22;;;;;;;6.78;5.13;;;19.30;99.90;;;;;;5070787;28;20189;-82
2023/09/13 08:19:49;;;;;;;5.60;4.95;;;19.40;99.90;;;;;;5069640;28;20495;-81
2023/09/13 08:22:15;;;;;;;7.13;4.90;;;19.40;99.90;;;;;;5069472;28;20616;-81
2023/09/13 08:24:41;;;;;;;5.22;4.57;;;19.50;99.90;;;;;;5069436;28;20178;-82
2023/09/13 08:27:06;;;;;;;4.97;4.50;;;19.50;99.90;;;;;;5070551;28;20235;-82
2023/09/13 08:29:33;;;;;;;4.55;4.10;;;19.50;99.90;;;;;;5069170;28;20624;-82
2023/09/13 08:31:59;;;;;;;4.80;4.28;;;19.60;99.90;;;;;;5070404;28;20221;-82
2023/09/13 08:34:25;;;;;;;4.70;3.95;;;19.60;99.90;;;;;;5069993;28;20606;-82
2023/09/13 08:36:55;;;;;;;4.80;4.05;;;19.70;99.90;;;;;;5070340;28;20157;-82
2023/09/13 08:39:22;;;;;;;6.63;4.03;;;19.60;99.90;;;;;;5069149;28;20611;-82
2023/09/13 08:41:52;;;;;;;6.05;4.43;;;19.60;99.90;;;;;;5071077;28;20252;-91
2023/09/13 08:44:22;;;;;;;4.47;3.97;;;19.60;99.90;;;;;;5059061;28;20177;-89
2023/09/13 08:46:56;;;;;;;4.68;4.28;;;19.60;99.90;;;;;;5056710;28;20205;-94
2023/09/13 08:49:23;;;;;;;4.53;4.13;;;19.60;99.90;;;;;;5047934;28;20609;-89
2023/09/13 08:51:50;;;;;;;6.13;5.47;;;19.50;99.90;;;;;;5036572;28;20214;-88
2023/09/13 08:54:18;;;;;;;7.70;4.80;;;19.40;99.90;;;;;;5037537;28;20278;-89
2023/09/13 08:56:45;;;;;;;8.85;5.43;;;19.40;99.90;;;;;;5036263;28;20174;-88
2023/09/13 08:59:15;;;;;;;6.43;5.45;;;19.40;99.90;;;;;;5036196;28;20223;-88
2023/09/13 09:01:48;;;;;;;7.15;5.97;;;19.40;99.90;;;;;;5037493;28;20206;-87
2023/09/13 09:04:19;;;;;;;7.40;6.68;;;19.40;99.90;;;;;;5036008;28;20178;-89
2023/09/13 09:06:45;;;;;;;9.73;5.70;;;19.40;99.90;;;;;;5036003;28;20577;-88
2023/09/13 09:09:19;;;;;;;7.85;6.32;;;19.50;99.90;;;;;;5037158;28;20178;-91
2023/09/13 09:11:51;;;;;;;8.10;6.25;;;19.60;99.90;;;;;;5035706;28;20222;-89
2023/09/13 09:14:22;;;;;;;8.20;7.38;;;19.80;99.90;;;;;;5035902;28;20177;-89
2023/09/13 09:16:51;;;;;;;7.15;6.35;;;20.00;99.90;;;;;;5036250;28;20549;-90
2023/09/13 09:19:17;;;;;;;6.90;6.13;;;20.00;99.90;;;;;;5043036;28;20178;-90
2023/09/13 09:21:42;;;;;;;7.30;6.53;;;20.10;99.90;;;;;;5055783;28;20174;-90
2023/09/13 09:24:12;;;;;;;7.60;6.68;;;20.10;99.90;;;;;;5056928;28;20206;-90
2023/09/13 09:26:38;;;;;;;7.35;6.65;;;20.10;99.90;;;;;;5055743;28;20174;-91
2023/09/13 09:29:14;;;;;;;8.70;7.28;;;20.20;99.90;;;;;;5055902;28;20182;-93
2023/09/13 09:31:40;;;;;;;8.50;7.20;;;20.20;99.90;;;;;;5056452;28;20667;-90
2023/09/13 09:34:10;;;;;;;7.15;6.45;;;20.40;99.90;;;;;;5052957;28;20186;-89
2023/09/13 09:36:43;;;;;;;7.43;5.40;;;20.60;99.90;;;;;;5054434;28;20174;-90
2023/09/13 09:39:09;;;;;;;5.60;4.90;;;20.60;99.90;;;;;;5054689;28;20674;-89
2023/09/13 09:41:37;;;;;;;5.60;5.05;;;20.60;99.90;;;;;;5054725;28;20586;-87
2023/09/13 09:44:06;;;;;;;5.63;5.10;;;20.50;99.90;;;;;;5055680;28;20173;-88
2023/09/13 09:46:33;;;;;;;5.53;4.85;;;20.50;99.90;;;;;;5055464;28;20169;-86
2023/09/13 09:49:03;;;;;;;7.35;5.03;;;20.50;99.90;;;;;;5055034;28;20190;-87
2023/09/13 09:51:29;;;;;;;5.40;4.40;;;20.50;99.90;;;;;;5055074;28;20251;-86
2023/09/13 09:53:58;;;;;;;6.13;4.70;;;20.50;99.90;;;;;;5054061;28;20182;-87
2023/09/13 09:56:24;;;;;;;5.30;4.78;;;20.50;99.90;;;;;;5054424;28;20239;-88
2023/09/13 09:58:51;;;;;;;6.80;5.07;;;20.50;99.90;;;;;;5054237;28;20236;-89
2023/09/13 10:01:17;;;;;;;6.85;4.20;;;20.40;99.90;;;;;;5054468;28;20182;-87
2023/09/13 10:03:56;;;;;;;6.65;4.85;;;20.40;99.90;;;;;;5055558;28;20177;-89
2023/09/13 10:06:22;;;;;;;9.75;5.10;;;20.30;99.90;;;;;;5055140;28;20174;-87
2023/09/13 10:08:49;;;;;;;5.95;4.90;;;20.20;99.90;;;;;;5054812;28;20170;-90
2023/09/13 10:11:22;;;;;;;5.47;4.90;;;20.20;99.90;;;;;;5053217;28;20174;-88
2023/09/13 10:13:49;;;;;;;5.43;4.93;;;20.10;99.90;;;;;;5055041;28;20510;-87
2023/09/13 10:16:17;;;;;;;8.20;5.45;;;20.10;99.90;;;;;;5054959;28;20621;-88
2023/09/13 10:18:50;;;;;;;5.65;5.13;;;20.10;99.90;;;;;;5054988;28;20194;-89
2023/09/13 10:21:25;;;;;;;6.05;5.45;;;20.20;99.90;;;;;;5053924;28;20669;-93
2023/09/13 10:24:01;;;;;;;8.38;5.60;;;20.20;99.90;;;;;;5055246;28;20599;-90
2023/09/13 10:26:30;;;;;;;8.13;6.55;;;20.30;99.90;;;;;;5053906;28;20173;-88
2023/09/13 10:29:07;;;;;;;8.10;6.90;;;20.50;99.90;;;;;;5054916;28;20173;-89
2023/09/13 10:31:38;;;;;;;6.63;5.78;;;20.70;99.90;;;;;;5053481;28;20609;-89
2023/09/13 10:34:08;;;;;;;7.72;6.93;;;21.00;99.90;;;;;;5053391;28;20170;-88
2023/09/13 10:36:38;;;;;;;7.63;6.90;;;21.20;99.90;;;;;;5053704;28;20178;-92
2023/09/13 10:39:21;;;;;;;7.03;6.32;;;21.30;99.90;;;;;;5054725;28;20174;-89
2023/09/13 10:41:59;;;;;;;8.80;6.20;;;21.20;99.90;;;;;;5053473;28;20237;-89
2023/09/13 10:44:25;;;;;;;7.00;6.40;;;21.20;99.90;;;;;;5054989;28;20170;-88
2023/09/13 10:46:50;;;;;;;7.28;6.50;;;21.20;99.90;;;;;;5054566;28;20173;-86
2023/09/13 10:49:17;;;;;;;6.38;5.13;;;21.20;99.90;;;;;;5060310;28;20181;-88
2023/09/13 10:51:43;;;;;;;5.00;4.60;;;21.20;99.90;;;;;;5074516;28;20295;-87
2023/09/13 10:54:10;;;;;;;5.43;4.93;;;21.30;99.90;;;;;;5074778;28;20219;-90
2023/09/13 10:56:36;;;;;;;5.68;4.90;;;21.40;99.90;;;;;;5073030;28;20579;-87
2023/09/13 10:59:04;;;;;;;4.85;4.32;;;21.50;99.90;;;;;;5073164;28;20173;-86
2023/09/13 11:01:31;;;;;;;4.45;4.05;;;21.60;99.90;;;;;;5074634;28;20165;-87
2023/09/13 11:03:58;;;;;;;4.95;4.47;;;21.60;99.90;;;;;;5073552;28;20184;-92
2023/09/13 11:06:25;;;;;;;3.33;3.03;;;21.60;99.90;;;;;;5072489;28;20173;-92
2023/09/13 11:08:51;;;;;;;7.15;2.10;;;21.60;99.90;;;;;;5074371;28;20157;-91
2023/09/13 11:11:21;;;;;;;3.08;1.77;;;20.90;99.90;;;;;;5072767;28;20643;-95
2023/09/13 11:13:53;;;;;;;2.28;2.00;;;20.60;99.90;;;;;;5074565;28;20299;-91
2023/09/13 11:16:23;;;;;;;2.58;1.80;;;20.20;99.90;;;;;;5073744;28;20161;-90
2023/09/13 11:18:54;;;;;;;2.35;1.70;;;19.90;99.90;;;;;;5068552;28;20238;-92
2023/09/13 11:21:49;;;;;;;2.97;1.90;;;19.70;99.90;;;;;;5033451;28;20484;-89
2023/09/13 11:24:36;;;;;;;2.30;2.10;;;19.60;99.90;;;;;;5033157;28;20232;-87
2023/09/13 11:27:12;;;;;;;3.67;2.10;;;19.40;99.90;;;;;;5033609;28;20178;-92
2023/09/13 11:29:46;;;;;;;2.30;2.03;;;19.30;99.90;;;;;;5033597;28;20224;-93
2023/09/13 11:32:31;;;;;;;2.67;1.95;;;19.30;99.90;;;;;;5033180;28;20236;-91
2023/09/13 11:35:04;;;;;;;3.35;1.92;;;19.20;99.90;;;;;;5034224;28;20513;-90
2023/09/13 11:37:32;;;;;;;4.13;2.00;;;19.20;99.90;;;;;;5033526;28;20171;-88
2023/09/13 11:40:13;;;;;;;3.50;1.90;;;19.20;99.90;;;;;;5033499;28;20185;-92
2023/09/13 11:42:40;;;;;;;3.63;1.98;;;19.20;99.90;;;;;;5034890;28;20170;-92
2023/09/13 11:45:09;;;;;;;2.13;1.92;;;19.30;99.90;;;;;;5033681;28;20182;-91
2023/09/13 11:47:36;;;;;;;2.95;1.90;;;19.20;99.90;;;;;;5034151;28;20174;-90
2023/09/13 11:50:03;;;;;;;2.25;2.05;;;19.30;99.90;;;;;;5045953;28;20239;-91
2023/09/13 11:53:08;;;;;;;1.70;1.60;;;19.30;99.90;;;;;;5053636;28;20210;-90
2023/09/13 11:55:50;;;;;;;1.48;1.33;;;19.30;99.90;;;;;;5053667;28;20177;-90
2023/09/13 11:58:19;;;;;;;2.58;1.30;;;19.20;99.90;;;;;;5053862;28;20220;-90
2023/09/13 12:00:45;;;;;;;1.65;1.40;;;19.30;99.90;;;;;;5053530;28;20194;-90
2023/09/13 12:03:15;;;;;;;1.58;1.25;;;19.20;99.90;;;;;;5053491;28;20174;-92
2023/09/13 12:05:42;;;;;;;2.10;1.70;;;19.20;99.90;;;;;;5053475;28;20202;-91
2023/09/13 12:08:27;;;;;;;1.90;1.70;;;19.20;99.90;;;;;;5053449;28;20208;-90
2023/09/13 12:10:55;;;;;;;2.72;1.50;;;19.30;99.90;;;;;;5053086;28;20182;-91
2023/09/13 12:13:38;;;;;;;1.95;1.80;;;19.30;99.90;;;;;;5033390;28;20683;-90
2023/09/13 12:16:06;;;;;;;2.05;1.88;;;19.40;99.90;;;;;;5038523;28;20237;-89
2023/09/13 12:18:31;;;;;;;2.15;1.65;;;19.40;99.90;;;;;;5055625;28;20169;-91
2023/09/13 12:20:58;;;;;;;2.63;2.15;;;19.30;99.90;;;;;;5056807;28;20174;-92
2023/09/13 12:23:25;;;;;;;2.00;1.80;;;19.40;99.90;;;;;;5057014;28;20236;-92
2023/09/13 12:25:55;;;;;;;2.13;1.92;;;19.40;99.90;;;;;;5058388;28;20480;-92
2023/09/13 12:28:35;;;;;;;2.75;2.00;;;19.30;99.90;;;;;;5057899;28;20162;-92
2023/09/13 12:31:14;;;;;;;3.75;2.28;;;19.30;99.90;;;;;;5056480;28;20718;-90
2023/09/13 12:33:42;;;;;;;2.63;2.17;;;19.30;99.90;;;;;;5057066;28;20182;-91
2023/09/13 12:36:09;;;;;;;3.97;2.20;;;19.30;99.90;;;;;;5057765;28;20976;-91
2023/09/13 12:38:45;;;;;;;2.67;2.38;;;19.30;99.90;;;;;;5058138;28;20177;-92
2023/09/13 12:41:13;;;;;;;2.15;1.95;;;19.30;99.90;;;;;;5057056;28;20212;-92
2023/09/13 12:43:45;;;;;;;2.05;1.80;;;19.20;99.90;;;;;;5056529;28;20518;-89
2023/09/13 12:46:19;;;;;;;2.13;1.92;;;19.20;99.90;;;;;;5055629;28;20178;-90
2023/09/13 12:48:45;;;;;;;1.67;1.58;;;19.10;99.90;;;;;;5057733;28;20181;-89
2023/09/13 12:51:16;;;;;;;2.00;1.80;;;19.00;99.90;;;;;;5055662;28;20186;-89
2023/09/13 12:53:43;;;;;;;3.50;1.85;;;19.00;99.90;;;;;;5057736;28;20224;-89